Time;durP1;ratioP1;P1;durP2;ratioP2;P2;SDS_P1;SDS_P2;PMS_P1;PMS_P2;Temp;Humidity;BMP_temperature;BMP_pressure;BME280_temperature;BME280_humidity;BME280_pressure;Samples;Min_cycle;Max_cycle;Signal;HPM_P1;HPM_P2
2023/01/16 00:01:52;;;;;;;1.75;0.60;;;6.60;69.50;;;;;;5031706;28;20457;-73
2023/01/16 00:04:18;;;;;;;1.10;0.60;;;6.60;70.10;;;;;;5030633;28;20422;-73
2023/01/16 00:06:43;;;;;;;2.90;0.70;;;6.50;69.90;;;;;;5031843;28;20383;-73
2023/01/16 00:09:09;;;;;;;2.37;0.80;;;6.60;71.50;;;;;;5031449;28;20402;-72
2023/01/16 00:11:34;;;;;;;2.00;0.60;;;6.60;70.50;;;;;;5031766;28;20395;-71
2023/01/16 00:14:00;;;;;;;3.40;0.90;;;6.60;69.30;;;;;;5030376;28;20418;-72
2023/01/16 00:16:27;;;;;;;1.50;1.20;;;6.70;69.70;;;;;;5031466;28;20383;-72
2023/01/16 00:18:53;;;;;;;1.70;0.73;;;6.70;70.10;;;;;;5031348;28;20394;-74
2023/01/16 00:21:19;;;;;;;1.75;0.68;;;6.70;69.80;;;;;;5029806;28;21078;-73
2023/01/16 00:23:45;;;;;;;3.95;0.77;;;6.60;69.80;;;;;;5029919;28;20394;-73
2023/01/16 00:26:11;;;;;;;3.72;0.65;;;6.70;69.70;;;;;;5031072;28;20383;-73
2023/01/16 00:28:38;;;;;;;1.73;0.63;;;6.70;70.40;;;;;;5030921;28;20387;-73
2023/01/16 00:31:05;;;;;;;3.70;0.90;;;6.60;71.30;;;;;;5030736;28;20407;-73
2023/01/16 00:33:31;;;;;;;2.53;0.75;;;6.70;69.90;;;;;;5030296;28;20828;-73
2023/01/16 00:35:57;;;;;;;2.40;0.70;;;6.70;70.50;;;;;;5031217;28;20409;-73
2023/01/16 00:38:22;;;;;;;3.33;0.90;;;6.60;71.80;;;;;;5030664;28;20387;-73
2023/01/16 00:40:48;;;;;;;3.10;0.60;;;6.60;73.30;;;;;;5031259;28;20777;-73
2023/01/16 00:43:13;;;;;;;1.88;0.68;;;6.60;73.70;;;;;;5028863;28;20427;-74
2023/01/16 00:45:39;;;;;;;3.72;0.77;;;6.60;74.20;;;;;;5030827;28;20426;-73
2023/01/16 00:48:06;;;;;;;2.92;0.80;;;6.60;72.80;;;;;;5029372;28;20387;-73
2023/01/16 00:50:31;;;;;;;3.45;0.88;;;6.60;72.30;;;;;;5028994;28;20402;-72
2023/01/16 00:52:57;;;;;;;3.70;0.80;;;6.60;72.50;;;;;;5030133;28;20387;-73
2023/01/16 00:55:22;;;;;;;2.30;0.80;;;6.50;73.20;;;;;;5029601;28;21118;-73
2023/01/16 00:57:48;;;;;;;2.47;0.80;;;6.50;74.40;;;;;;5030661;28;20473;-72
2023/01/16 01:00:14;;;;;;;2.30;0.85;;;6.60;73.20;;;;;;5028999;28;20501;-73
2023/01/16 01:02:39;;;;;;;2.90;0.70;;;6.60;77.70;;;;;;5030032;28;20807;-72
2023/01/16 01:05:06;;;;;;;1.40;0.60;;;6.70;73.30;;;;;;5030526;28;20418;-73
2023/01/16 01:07:31;;;;;;;3.20;0.50;;;6.60;74.10;;;;;;5030568;28;20383;-73
2023/01/16 01:09:57;;;;;;;2.63;0.73;;;6.70;72.70;;;;;;5030107;28;20403;-73
2023/01/16 01:12:23;;;;;;;4.22;0.60;;;6.80;71.30;;;;;;5029559;28;20386;-72
2023/01/16 01:14:48;;;;;;;2.47;0.60;;;6.90;69.60;;;;;;5029878;28;20391;-73
2023/01/16 01:17:14;;;;;;;1.70;0.95;;;6.90;69.00;;;;;;5030530;28;20403;-73
2023/01/16 01:19:39;;;;;;;2.75;0.70;;;6.90;68.80;;;;;;5029855;28;20764;-73
2023/01/16 01:22:05;;;;;;;1.10;0.60;;;6.90;68.40;;;;;;5029282;28;20394;-73
2023/01/16 01:24:30;;;;;;;3.20;0.60;;;6.90;68.60;;;;;;5029530;28;20482;-72
2023/01/16 01:26:56;;;;;;;1.77;1.00;;;6.90;68.30;;;;;;5030468;28;20387;-73
2023/01/16 01:29:21;;;;;;;3.00;0.70;;;6.80;68.20;;;;;;5030207;28;20438;-73
2023/01/16 01:31:47;;;;;;;1.60;0.70;;;6.80;68.40;;;;;;5029918;28;20399;-73
2023/01/16 01:34:12;;;;;;;1.73;0.57;;;6.90;66.70;;;;;;5029233;28;20391;-73
2023/01/16 01:36:38;;;;;;;1.00;0.50;;;7.00;66.80;;;;;;5030151;28;20901;-73
2023/01/16 01:39:03;;;;;;;4.30;0.60;;;7.00;66.70;;;;;;5054856;22;20960;-73
2023/01/16 01:41:29;;;;;;;2.40;0.90;;;7.00;66.60;;;;;;5106336;28;20380;-71
2023/01/16 01:43:56;;;;;;;5.30;0.70;;;7.10;65.60;;;;;;5109708;28;20373;-72
2023/01/16 01:46:43;;;;;;;2.22;0.70;;;7.10;66.60;;;;;;5109097;28;20377;-71
2023/01/16 01:49:23;;;;;;;2.67;0.73;;;7.10;66.40;;;;;;5109779;28;20391;-72
2023/01/16 01:51:51;;;;;;;3.13;0.90;;;7.00;68.80;;;;;;5091404;28;20386;-71
2023/01/16 01:54:24;;;;;;;2.55;0.80;;;7.00;69.70;;;;;;5089383;28;20770;-72
2023/01/16 01:56:56;;;;;;;2.40;0.80;;;7.10;69.70;;;;;;5090154;28;20381;-72
2023/01/16 01:59:27;;;;;;;3.77;0.80;;;7.00;69.70;;;;;;5090107;28;20758;-72
2023/01/16 02:01:54;;;;;;;1.50;0.60;;;7.00;69.90;;;;;;5098714;28;20384;-72
2023/01/16 02:04:25;;;;;;;2.53;0.60;;;6.90;70.70;;;;;;5109385;28;20392;-72
2023/01/16 02:06:55;;;;;;;2.78;0.57;;;7.00;69.20;;;;;;5110385;28;20379;-72
2023/01/16 02:09:22;;;;;;;1.60;0.70;;;7.00;68.70;;;;;;5092046;28;20405;-72
2023/01/16 02:12:04;;;;;;;1.38;0.60;;;7.00;68.80;;;;;;5096892;28;20391;-72
2023/01/16 02:14:32;;;;;;;2.45;0.60;;;6.90;69.10;;;;;;5109372;28;20387;-72
2023/01/16 02:20:09;;;;;;;2.90;0.60;;;7.00;68.10;;;;;;5095444;28;20389;-72
2023/01/16 02:23:12;;;;;;;2.88;0.60;;;7.00;67.90;;;;;;5087785;28;20394;-72
2023/01/16 02:25:43;;;;;;;1.30;0.50;;;7.10;67.30;;;;;;5089724;28;20474;-72
2023/01/16 02:28:35;;;;;;;2.70;0.70;;;7.00;68.10;;;;;;5089700;28;20389;-72
2023/01/16 02:31:36;;;;;;;2.72;0.73;;;7.00;67.20;;;;;;5069240;28;20403;-71
2023/01/16 02:34:26;;;;;;;5.70;0.70;;;7.00;68.20;;;;;;5095052;28;20786;-72
2023/01/16 02:37:19;;;;;;;1.85;0.80;;;7.00;68.10;;;;;;5109623;28;20384;-72
2023/01/16 02:40:03;;;;;;;1.70;0.52;;;6.90;69.90;;;;;;5109672;28;20388;-72
2023/01/16 02:42:53;;;;;;;3.03;0.70;;;6.90;69.50;;;;;;5108279;28;20457;-72
2023/01/16 02:45:26;;;;;;;1.60;0.70;;;6.90;69.60;;;;;;5069380;28;20387;-72
2023/01/16 02:48:25;;;;;;;2.60;1.00;;;6.90;68.60;;;;;;5070770;28;20874;-72
2023/01/16 02:51:03;;;;;;;2.67;0.90;;;6.90;67.90;;;;;;5072694;28;20414;-72
2023/01/16 02:53:59;;;;;;;2.50;0.70;;;7.00;69.40;;;;;;5098953;28;20830;-73
2023/01/16 02:56:35;;;;;;;1.95;0.60;;;6.90;68.60;;;;;;5083537;28;20738;-73
2023/01/16 02:59:01;;;;;;;1.40;0.60;;;7.00;68.90;;;;;;5113376;28;20380;-73
2023/01/16 03:01:26;;;;;;;2.50;0.50;;;7.00;68.20;;;;;;5113348;28;20429;-72
2023/01/16 03:04:05;;;;;;;2.30;0.50;;;7.00;68.20;;;;;;5099825;28;21026;-72
2023/01/16 03:06:46;;;;;;;0.90;0.70;;;7.00;68.10;;;;;;5092784;28;20382;-73
2023/01/16 03:09:14;;;;;;;2.00;0.77;;;7.00;68.20;;;;;;5075913;28;20387;-73
2023/01/16 03:12:06;;;;;;;4.15;0.77;;;7.00;68.20;;;;;;5072483;28;20372;-72
2023/01/16 03:14:44;;;;;;;1.40;0.60;;;6.90;67.50;;;;;;5072063;28;20484;-72
2023/01/16 03:17:27;;;;;;;1.17;0.50;;;7.00;67.10;;;;;;5072542;28;20384;-72
2023/01/16 03:20:05;;;;;;;2.20;0.70;;;7.00;66.60;;;;;;5072514;28;20441;-72
2023/01/16 03:22:55;;;;;;;1.25;0.50;;;7.10;66.00;;;;;;5083462;28;20396;-72
2023/01/16 03:25:34;;;;;;;2.35;0.60;;;7.00;65.50;;;;;;5112411;28;20368;-72
2023/01/16 03:28:20;;;;;;;1.13;0.55;;;7.00;65.70;;;;;;5113016;28;20396;-72
2023/01/16 03:30:48;;;;;;;0.90;0.50;;;7.00;66.20;;;;;;5112704;28;20479;-72
2023/01/16 03:33:21;;;;;;;2.17;1.00;;;6.90;66.10;;;;;;5097167;28;20484;-71
2023/01/16 03:35:54;;;;;;;4.50;0.85;;;7.00;65.20;;;;;;5092295;28;20410;-72
2023/01/16 03:38:21;;;;;;;1.40;0.60;;;7.00;64.70;;;;;;5092239;28;20378;-72
2023/01/16 03:40:48;;;;;;;1.80;0.57;;;7.00;65.20;;;;;;5091873;28;20398;-72
2023/01/16 03:43:19;;;;;;;1.13;0.43;;;7.00;64.50;;;;;;5105174;28;20388;-72
2023/01/16 03:46:06;;;;;;;1.08;0.50;;;7.10;63.00;;;;;;5112597;28;20430;-72
2023/01/16 03:48:55;;;;;;;1.90;0.70;;;7.00;63.50;;;;;;5094831;28;20455;-72
2023/01/16 03:51:26;;;;;;;1.38;0.60;;;6.90;63.40;;;;;;5091931;28;20409;-72
2023/01/16 03:54:06;;;;;;;1.58;0.50;;;6.90;63.30;;;;;;5091303;28;20452;-72
2023/01/16 03:56:40;;;;;;;1.00;0.70;;;6.80;64.30;;;;;;5091951;28;20378;-72
2023/01/16 03:59:06;;;;;;;1.70;0.30;;;6.70;64.60;;;;;;5096567;28;20381;-72
2023/01/16 04:01:59;;;;;;;2.60;0.63;;;6.70;65.50;;;;;;5112159;27;20420;-73
2023/01/16 04:05:22;;;;;;;1.33;0.40;;;6.70;63.10;;;;;;5111868;28;20521;-72
2023/01/16 04:08:14;;;;;;;0.90;0.43;;;6.70;60.20;;;;;;5045009;28;20426;-72
2023/01/16 04:10:44;;;;;;;0.90;0.40;;;6.70;61.50;;;;;;5107562;28;20755;-72
2023/01/16 04:13:23;;;;;;;1.27;0.40;;;6.60;62.50;;;;;;5089808;28;20417;-73
2023/01/16 04:15:53;;;;;;;1.02;0.60;;;6.60;63.40;;;;;;5090287;28;20388;-73
2023/01/16 04:18:21;;;;;;;1.80;0.60;;;6.50;65.20;;;;;;5091731;28;20374;-72
2023/01/16 04:20:49;;;;;;;0.70;0.40;;;6.50;65.50;;;;;;5095577;28;20399;-72
2023/01/16 04:23:16;;;;;;;1.80;0.63;;;6.30;68.90;;;;;;5111329;28;20819;-72
2023/01/16 04:25:42;;;;;;;1.30;0.40;;;6.30;65.60;;;;;;5095851;28;20425;-72
2023/01/16 04:28:07;;;;;;;1.40;0.50;;;6.30;66.40;;;;;;5091377;28;20401;-72
2023/01/16 04:30:33;;;;;;;1.90;0.43;;;6.20;67.80;;;;;;5090102;28;20517;-72
2023/01/16 04:33:03;;;;;;;1.40;0.50;;;6.10;70.10;;;;;;5089203;28;20919;-72
2023/01/16 04:35:29;;;;;;;0.80;0.50;;;6.10;71.40;;;;;;5103229;28;20886;-73
2023/01/16 04:37:54;;;;;;;0.98;0.70;;;6.10;69.20;;;;;;5111960;28;20380;-72
2023/01/16 04:40:20;;;;;;;2.00;0.50;;;6.00;70.20;;;;;;5111758;28;20453;-72
2023/01/16 04:42:45;;;;;;;1.00;0.60;;;6.00;68.80;;;;;;5110920;28;20470;-73
2023/01/16 04:45:11;;;;;;;2.60;0.60;;;5.90;70.30;;;;;;5094636;28;20898;-73
2023/01/16 04:47:36;;;;;;;0.93;0.40;;;5.90;73.50;;;;;;5091373;28;20827;-73
2023/01/16 04:50:02;;;;;;;1.20;0.60;;;5.80;73.20;;;;;;5091295;28;20394;-73
2023/01/16 04:52:27;;;;;;;1.13;0.60;;;5.70;72.90;;;;;;5090771;28;20485;-73
2023/01/16 04:54:53;;;;;;;0.70;0.50;;;5.70;72.10;;;;;;5104129;28;20437;-73
2023/01/16 04:57:18;;;;;;;2.72;0.50;;;5.70;74.50;;;;;;5111494;28;20376;-72
2023/01/16 04:59:44;;;;;;;1.13;0.50;;;5.70;71.20;;;;;;5102957;28;20429;-73
2023/01/16 05:02:09;;;;;;;1.87;0.50;;;5.70;72.20;;;;;;5091265;28;20473;-73
2023/01/16 05:04:35;;;;;;;0.90;0.50;;;5.70;70.50;;;;;;5089126;28;20392;-73
2023/01/16 05:07:00;;;;;;;1.00;0.50;;;5.70;73.30;;;;;;5091028;28;20795;-72
2023/01/16 05:09:26;;;;;;;0.60;0.40;;;5.70;71.10;;;;;;5077803;28;20406;-72
2023/01/16 05:11:51;;;;;;;2.23;0.50;;;5.80;66.90;;;;;;5090646;28;20425;-72
2023/01/16 05:14:17;;;;;;;1.03;0.50;;;5.80;69.90;;;;;;5090140;28;20864;-72
2023/01/16 05:16:42;;;;;;;1.30;0.60;;;5.80;70.70;;;;;;5093427;28;20496;-72
2023/01/16 05:19:09;;;;;;;1.50;0.40;;;5.80;68.70;;;;;;5111174;28;20408;-73
2023/01/16 05:21:34;;;;;;;1.52;0.60;;;5.80;67.30;;;;;;5111268;28;20445;-72
2023/01/16 05:24:00;;;;;;;0.75;0.30;;;6.00;66.10;;;;;;5110389;28;20934;-73
2023/01/16 05:26:26;;;;;;;0.83;0.70;;;5.90;65.70;;;;;;5111292;28;20419;-73
2023/01/16 05:28:51;;;;;;;1.20;0.50;;;6.00;63.00;;;;;;5090731;28;20404;-73
2023/01/16 05:31:17;;;;;;;2.07;0.70;;;6.10;63.90;;;;;;5090538;28;20463;-73
2023/01/16 05:33:42;;;;;;;0.70;0.50;;;6.10;63.90;;;;;;5089920;28;20823;-73
2023/01/16 05:36:08;;;;;;;0.77;0.50;;;6.20;63.50;;;;;;5090678;28;20378;-73
2023/01/16 05:38:34;;;;;;;1.50;0.60;;;6.10;63.40;;;;;;5103790;28;20738;-73
2023/01/16 05:40:59;;;;;;;2.00;0.40;;;6.20;61.60;;;;;;5103747;28;20400;-72
2023/01/16 05:43:25;;;;;;;0.80;0.70;;;6.20;61.40;;;;;;5091571;28;20400;-72
2023/01/16 05:45:51;;;;;;;1.52;0.50;;;6.10;61.60;;;;;;5090630;28;20465;-72
2023/01/16 05:48:17;;;;;;;0.70;0.40;;;6.30;57.50;;;;;;5098669;28;20473;-74
2023/01/16 05:50:42;;;;;;;1.70;0.40;;;6.50;55.70;;;;;;5090366;28;20397;-73
2023/01/16 05:53:08;;;;;;;1.58;0.50;;;6.40;56.90;;;;;;5089620;28;20390;-73
2023/01/16 05:55:44;;;;;;;1.30;0.40;;;6.60;56.50;;;;;;5090598;28;20384;-73
2023/01/16 05:58:11;;;;;;;1.07;0.40;;;6.50;57.90;;;;;;5091710;28;20450;-73
2023/01/16 06:00:38;;;;;;;1.67;0.50;;;6.30;58.60;;;;;;5109937;28;20388;-73
2023/01/16 06:03:04;;;;;;;1.90;0.40;;;6.30;59.00;;;;;;5089601;28;20397;-73
2023/01/16 06:05:30;;;;;;;2.30;0.60;;;6.50;57.30;;;;;;5090581;28;20896;-73
2023/01/16 06:07:58;;;;;;;1.03;0.40;;;6.40;58.10;;;;;;5087515;28;20388;-72
2023/01/16 06:10:25;;;;;;;0.60;0.40;;;6.30;58.40;;;;;;5089741;28;20401;-73
2023/01/16 06:12:52;;;;;;;0.68;0.50;;;6.30;59.00;;;;;;5088896;28;20461;-72
2023/01/16 06:15:18;;;;;;;0.60;0.30;;;6.20;59.80;;;;;;5108246;28;20376;-72
2023/01/16 06:17:44;;;;;;;1.33;0.50;;;6.20;60.60;;;;;;5110540;28;20388;-73
2023/01/16 06:20:10;;;;;;;1.40;0.40;;;6.10;59.60;;;;;;5111167;28;20396;-72
2023/01/16 06:22:36;;;;;;;1.38;0.50;;;6.10;59.60;;;;;;5116760;28;20407;-72
2023/01/16 06:25:01;;;;;;;1.60;0.80;;;6.20;59.70;;;;;;5114380;28;20388;-72
2023/01/16 06:27:26;;;;;;;0.90;0.50;;;6.20;59.10;;;;;;5114502;28;20435;-72
2023/01/16 06:29:52;;;;;;;1.20;0.50;;;6.20;58.10;;;;;;5113444;28;20415;-72
2023/01/16 06:32:17;;;;;;;0.90;0.50;;;6.30;56.10;;;;;;5114473;28;20420;-72
2023/01/16 06:34:44;;;;;;;2.17;0.50;;;6.40;60.80;;;;;;5099649;28;21087;-72
2023/01/16 06:37:09;;;;;;;0.70;0.50;;;6.40;56.50;;;;;;5093816;28;20439;-72
2023/01/16 06:39:35;;;;;;;0.90;0.40;;;6.50;55.00;;;;;;5093541;28;20806;-72
2023/01/16 06:42:03;;;;;;;1.30;0.60;;;6.50;55.20;;;;;;5093880;28;20418;-72
2023/01/16 06:44:28;;;;;;;1.30;0.40;;;6.50;55.60;;;;;;5103448;28;20395;-72
2023/01/16 06:46:54;;;;;;;0.60;0.30;;;6.50;54.80;;;;;;5114191;28;20372;-72
2023/01/16 06:49:20;;;;;;;0.50;0.30;;;6.60;54.70;;;;;;5113912;28;20377;-72
2023/01/16 06:51:45;;;;;;;0.60;0.50;;;6.60;53.50;;;;;;5096264;28;20477;-72
2023/01/16 06:54:11;;;;;;;0.83;0.43;;;6.80;52.00;;;;;;5092659;28;20452;-72
2023/01/16 06:56:37;;;;;;;1.20;0.50;;;6.80;49.00;;;;;;5093556;28;20386;-72
2023/01/16 06:59:03;;;;;;;1.48;0.50;;;6.90;50.70;;;;;;5093362;28;20384;-72
2023/01/16 07:01:28;;;;;;;0.60;0.40;;;6.80;52.00;;;;;;5105305;28;20477;-72
2023/01/16 07:03:54;;;;;;;0.50;0.40;;;6.60;53.50;;;;;;5092521;28;20448;-72
2023/01/16 07:06:19;;;;;;;0.90;0.50;;;6.60;52.20;;;;;;5093346;28;20393;-72
2023/01/16 07:08:48;;;;;;;2.87;0.70;;;6.60;53.50;;;;;;5079922;28;20778;-72
2023/01/16 07:11:14;;;;;;;0.93;0.50;;;6.50;53.30;;;;;;5072951;28;20898;-72
2023/01/16 07:13:39;;;;;;;1.73;0.47;;;6.50;53.50;;;;;;5109742;28;20396;-72
2023/01/16 07:24:20;;;;;;;0.80;0.60;;;6.60;54.20;;;;;;5051860;28;21019;-72
2023/01/16 07:26:52;;;;;;;1.30;0.75;;;6.60;53.40;;;;;;5052925;28;20389;-72
2023/01/16 07:29:18;;;;;;;0.80;0.60;;;6.60;51.70;;;;;;5052260;28;20752;-72
2023/01/16 07:31:43;;;;;;;1.70;0.50;;;6.70;51.10;;;;;;5052527;28;20400;-73
2023/01/16 07:34:09;;;;;;;1.63;0.50;;;6.80;50.30;;;;;;5051566;28;20930;-73
2023/01/16 07:36:35;;;;;;;0.70;0.40;;;6.90;50.20;;;;;;5052563;28;20393;-72
2023/01/16 07:39:00;;;;;;;1.00;0.60;;;7.00;48.80;;;;;;5052233;28;20396;-72
2023/01/16 07:41:26;;;;;;;0.87;0.60;;;6.90;49.50;;;;;;5052398;28;20771;-72
2023/01/16 07:43:51;;;;;;;1.40;0.80;;;7.00;49.90;;;;;;5051821;28;20378;-72
2023/01/16 07:46:17;;;;;;;3.40;0.70;;;7.10;49.40;;;;;;5051986;28;20420;-72
2023/01/16 07:48:42;;;;;;;0.60;0.40;;;7.10;48.40;;;;;;5052229;28;20381;-72
2023/01/16 07:51:08;;;;;;;0.70;0.47;;;7.30;44.10;;;;;;5052077;28;20401;-72
2023/01/16 07:53:33;;;;;;;0.50;0.30;;;7.70;40.10;;;;;;5051838;28;20386;-72
2023/01/16 07:56:02;;;;;;;0.50;0.30;;;8.10;37.30;;;;;;5052006;28;20434;-72
2023/01/16 07:58:29;;;;;;;0.57;0.50;;;8.20;36.10;;;;;;5052153;28;20390;-72
2023/01/16 08:00:56;;;;;;;1.40;0.50;;;8.10;37.70;;;;;;5051915;28;20393;-72
2023/01/16 08:03:22;;;;;;;0.70;0.40;;;8.10;36.80;;;;;;5051403;28;20392;-73
2023/01/16 08:05:49;;;;;;;0.47;0.47;;;8.10;37.20;;;;;;5052101;28;20388;-72
2023/01/16 08:08:16;;;;;;;1.10;0.40;;;8.10;36.50;;;;;;5052012;28;20756;-72
2023/01/16 08:10:41;;;;;;;0.50;0.40;;;8.10;36.60;;;;;;5051621;28;20449;-72
2023/01/16 08:13:07;;;;;;;2.50;0.40;;;8.10;38.40;;;;;;5051220;28;20417;-72
2023/01/16 08:15:32;;;;;;;1.50;0.40;;;8.10;38.80;;;;;;5050652;28;20691;-72
2023/01/16 08:17:58;;;;;;;0.70;0.37;;;8.20;37.20;;;;;;5051357;28;20394;-72
2023/01/16 08:20:25;;;;;;;0.40;0.30;;;8.10;37.50;;;;;;5051279;28;20494;-72
2023/01/16 08:22:51;;;;;;;0.47;0.43;;;8.10;37.90;;;;;;5050970;28;20386;-72
2023/01/16 08:25:18;;;;;;;1.95;0.90;;;8.10;41.40;;;;;;5051223;28;20382;-72
2023/01/16 08:27:44;;;;;;;0.70;0.50;;;8.10;39.20;;;;;;5051253;28;20412;-72
2023/01/16 08:30:10;;;;;;;0.80;0.77;;;8.10;37.50;;;;;;5051310;28;20500;-72
2023/01/16 08:32:36;;;;;;;0.80;0.50;;;8.10;37.90;;;;;;5050655;28;20447;-72
2023/01/16 08:35:05;;;;;;;1.00;0.60;;;8.20;38.40;;;;;;5051369;28;20378;-72
2023/01/16 08:37:32;;;;;;;0.60;0.55;;;8.20;39.20;;;;;;5051095;28;20398;-72
2023/01/16 08:39:58;;;;;;;1.17;0.50;;;8.00;42.80;;;;;;5051078;28;20429;-72
2023/01/16 08:53:25;;;;;;;0.90;0.52;;;7.00;69.90;;;;;;5030764;28;20935;-73
2023/01/16 08:55:51;;;;;;;0.73;0.45;;;6.70;80.50;;;;;;5031198;28;20398;-73
2023/01/16 08:58:22;;;;;;;0.50;0.40;;;6.40;87.40;;;;;;5031711;28;20387;-73
2023/01/16 09:00:49;;;;;;;0.60;0.50;;;6.40;95.30;;;;;;5050678;28;20796;-73
2023/01/16 09:03:18;;;;;;;1.52;0.50;;;6.40;87.80;;;;;;5050137;28;20468;-71
2023/01/16 09:05:45;;;;;;;0.50;0.40;;;6.40;89.50;;;;;;5050836;28;20428;-71
2023/01/16 09:08:11;;;;;;;0.90;0.43;;;6.40;86.80;;;;;;5042620;28;20403;-72
2023/01/16 09:10:37;;;;;;;1.33;0.40;;;6.50;82.60;;;;;;5032694;28;20418;-72
2023/01/16 09:15:48;;;;;;;0.50;0.40;;;6.50;90.10;;;;;;5050765;28;20496;-72
2023/01/16 09:18:13;;;;;;;1.00;0.50;;;6.50;87.70;;;;;;5050690;28;20381;-73
2023/01/16 09:20:39;;;;;;;2.37;1.00;;;6.50;87.70;;;;;;5050399;28;20493;-72
2023/01/16 09:23:05;;;;;;;0.68;0.40;;;6.60;88.30;;;;;;5049819;28;20443;-72
2023/01/16 09:25:31;;;;;;;0.82;0.50;;;6.50;96.70;;;;;;5048698;28;20397;-72
2023/01/16 09:27:57;;;;;;;0.70;0.60;;;6.30;99.50;;;;;;5050628;28;20386;-72
2023/01/16 09:30:23;;;;;;;1.80;0.50;;;6.20;99.90;;;;;;5050254;28;20454;-72
2023/01/16 09:32:48;;;;;;;0.80;0.60;;;6.00;99.90;;;;;;5048451;28;20386;-72
2023/01/16 09:35:14;;;;;;;0.70;0.40;;;5.90;99.90;;;;;;5049908;28;20522;-72
2023/01/16 09:37:42;;;;;;;0.70;0.50;;;5.90;99.90;;;;;;5050104;28;20429;-72
2023/01/16 09:40:20;;;;;;;1.33;0.50;;;5.80;99.90;;;;;;5049535;28;20759;-73
2023/01/16 09:45:59;;;;;;;1.03;0.60;;;5.60;99.90;;;;;;5050447;28;20396;-73
2023/01/16 09:48:51;;;;;;;0.70;0.40;;;5.50;99.90;;;;;;5050403;28;20408;-72
2023/01/16 09:51:24;;;;;;;0.80;0.40;;;5.40;99.90;;;;;;5049777;28;20560;-72
2023/01/16 09:59:40;;;;;;;0.50;0.40;;;5.20;99.90;;;;;;5045044;28;20401;-72
2023/01/16 10:02:36;;;;;;;0.60;0.50;;;5.20;99.90;;;;;;5054541;28;20392;-72
2023/01/16 10:05:04;;;;;;;2.20;0.50;;;5.10;99.90;;;;;;5054436;28;20823;-72
2023/01/16 10:07:38;;;;;;;0.77;0.50;;;5.10;99.90;;;;;;5051752;28;20377;-73
2023/01/16 10:10:26;;;;;;;0.60;0.40;;;5.20;99.90;;;;;;5047556;28;20409;-72
2023/01/16 10:13:30;;;;;;;0.80;0.40;;;5.20;99.90;;;;;;5052244;28;20496;-73
2023/01/16 10:16:38;;;;;;;0.70;0.40;;;5.30;99.90;;;;;;5053982;28;20416;-73
2023/01/16 10:19:31;;;;;;;0.40;0.30;;;5.50;99.90;;;;;;5054266;28;20380;-72
2023/01/16 10:22:36;;;;;;;0.60;0.40;;;5.40;99.90;;;;;;5054138;28;20378;-73
2023/01/16 10:25:19;;;;;;;0.40;0.30;;;5.40;99.90;;;;;;5053881;28;20388;-74
2023/01/16 10:28:25;;;;;;;0.60;0.30;;;5.50;99.90;;;;;;5052819;28;20470;-74
2023/01/16 10:31:08;;;;;;;1.00;0.40;;;5.50;99.90;;;;;;5031455;28;20787;-74
2023/01/16 10:33:45;;;;;;;0.50;0.30;;;5.40;99.90;;;;;;5052047;28;21078;-74
2023/01/16 10:36:14;;;;;;;0.40;0.30;;;5.50;99.90;;;;;;5052757;28;20442;-74
2023/01/16 10:38:55;;;;;;;0.80;0.40;;;5.30;99.90;;;;;;5053569;28;20446;-74
2023/01/16 10:50:15;;;;;;;0.40;0.30;;;5.20;99.90;;;;;;5033642;28;20497;-74
2023/01/16 10:52:41;;;;;;;0.40;0.30;;;5.10;99.90;;;;;;5032686;28;20951;-74
2023/01/16 10:55:09;;;;;;;0.75;0.40;;;5.30;99.90;;;;;;5033542;28;20395;-74
2023/01/16 10:57:35;;;;;;;0.63;0.40;;;5.30;99.90;;;;;;5052634;28;20386;-74
2023/01/16 11:00:16;;;;;;;0.50;0.40;;;5.20;99.90;;;;;;5053109;28;20401;-73
2023/01/16 11:02:45;;;;;;;0.40;0.30;;;5.20;99.90;;;;;;5052482;28;20887;-73
2023/01/16 11:05:23;;;;;;;0.40;0.35;;;5.40;99.90;;;;;;5053241;28;20413;-73
2023/01/16 11:07:53;;;;;;;0.85;0.50;;;5.40;99.90;;;;;;5037998;28;20911;-73
2023/01/16 11:10:18;;;;;;;1.10;0.40;;;5.50;99.90;;;;;;5052508;28;20463;-71
2023/01/16 11:18:29;;;;;;;0.90;0.50;;;5.60;99.90;;;;;;5053101;28;21005;-73
2023/01/16 11:21:13;;;;;;;0.40;0.30;;;5.90;99.90;;;;;;5052427;28;20412;-73
2023/01/16 11:23:42;;;;;;;0.40;0.30;;;6.30;99.90;;;;;;5052221;28;20412;-73
2023/01/16 11:26:10;;;;;;;0.40;0.30;;;6.40;99.90;;;;;;5052518;28;20408;-72
2023/01/16 11:28:36;;;;;;;2.60;0.30;;;6.70;99.90;;;;;;5052786;28;20384;-73
2023/01/16 11:31:13;;;;;;;0.50;0.30;;;6.90;99.90;;;;;;5052530;28;20409;-73
2023/01/16 11:33:48;;;;;;;1.30;0.30;;;7.00;99.90;;;;;;5050780;28;20759;-73
2023/01/16 11:36:17;;;;;;;0.40;0.30;;;7.00;99.90;;;;;;5051435;28;20424;-73
2023/01/16 11:38:45;;;;;;;0.45;0.30;;;7.20;96.00;;;;;;5052637;28;20389;-73
2023/01/16 11:41:11;;;;;;;0.40;0.30;;;7.20;95.30;;;;;;5052562;28;20389;-72
2023/01/16 11:46:36;;;;;;;0.40;0.30;;;7.40;93.80;;;;;;5052422;28;20413;-73
2023/01/16 11:49:13;;;;;;;0.40;0.20;;;7.50;90.90;;;;;;5052366;28;20389;-71
2023/01/16 11:51:39;;;;;;;0.40;0.23;;;7.50;90.20;;;;;;5052175;28;20417;-72
2023/01/16 11:54:12;;;;;;;0.57;0.20;;;7.50;88.90;;;;;;5051173;28;20875;-73
2023/01/16 11:57:19;;;;;;;1.30;0.60;;;7.60;90.60;;;;;;5052200;28;20456;-73
2023/01/16 12:00:28;;;;;;;0.40;0.40;;;7.70;88.00;;;;;;5031732;28;20402;-73
2023/01/16 12:03:24;;;;;;;0.40;0.23;;;7.70;87.00;;;;;;5051277;28;20440;-73
2023/01/16 12:05:58;;;;;;;0.50;0.30;;;7.90;86.90;;;;;;5052147;28;20427;-73
2023/01/16 12:08:56;;;;;;;0.50;0.20;;;8.00;84.70;;;;;;5051716;28;20393;-73
2023/01/16 12:11:44;;;;;;;0.40;0.30;;;8.00;78.70;;;;;;5046759;28;20421;-73
2023/01/16 12:14:18;;;;;;;0.40;0.30;;;7.90;79.90;;;;;;5050295;28;20771;-73
2023/01/16 12:17:11;;;;;;;0.50;0.30;;;7.90;82.40;;;;;;5051796;28;20373;-73
2023/01/16 12:19:45;;;;;;;0.40;0.30;;;7.70;88.00;;;;;;5051019;28;20408;-74
2023/01/16 12:22:37;;;;;;;0.45;0.30;;;7.60;82.90;;;;;;5051150;28;20806;-74
2023/01/16 12:25:30;;;;;;;0.40;0.30;;;7.60;85.00;;;;;;5051922;28;20912;-74
2023/01/16 12:28:09;;;;;;;0.40;0.20;;;7.40;91.90;;;;;;5051642;28;20389;-71
2023/01/16 12:30:53;;;;;;;0.40;0.20;;;7.20;92.60;;;;;;5051105;28;20459;-73
2023/01/16 12:33:27;;;;;;;0.50;0.40;;;7.20;96.90;;;;;;5050770;28;20389;-74
2023/01/16 12:36:08;;;;;;;0.43;0.30;;;7.10;96.40;;;;;;5051441;28;20390;-72
2023/01/16 12:38:44;;;;;;;0.70;0.40;;;7.10;97.10;;;;;;5051144;28;20385;-73
2023/01/16 12:44:21;;;;;;;0.70;0.30;;;7.00;98.60;;;;;;5050364;28;20392;-73
2023/01/16 12:47:30;;;;;;;0.88;0.50;;;6.80;99.90;;;;;;5049793;28;20459;-73
2023/01/16 12:50:02;;;;;;;0.40;0.30;;;6.80;99.90;;;;;;5047924;28;20904;-72
2023/01/16 12:52:37;;;;;;;0.50;0.40;;;6.70;99.90;;;;;;5050621;28;20377;-73
2023/01/16 12:55:39;;;;;;;2.60;0.90;;;6.70;99.90;;;;;;5051154;28;20378;-73
2023/01/16 12:58:18;;;;;;;0.60;0.30;;;6.60;99.90;;;;;;5050717;28;20407;-71
2023/01/16 13:01:08;;;;;;;0.40;0.30;;;6.50;99.90;;;;;;5050894;28;20974;-71
2023/01/16 13:04:08;;;;;;;0.60;0.30;;;6.30;99.90;;;;;;5048989;28;21004;-72
2023/01/16 13:06:48;;;;;;;0.50;0.38;;;6.20;99.90;;;;;;5031078;28;20395;-72
2023/01/16 13:09:38;;;;;;;0.80;0.35;;;6.10;99.90;;;;;;5047547;28;20393;-72
2023/01/16 13:15:00;;;;;;;0.98;0.30;;;6.10;99.90;;;;;;5050388;28;20473;-72
2023/01/16 13:17:31;;;;;;;0.50;0.30;;;6.30;99.90;;;;;;5049451;28;20763;-72
2023/01/16 13:20:01;;;;;;;0.60;0.40;;;6.30;99.90;;;;;;5050900;28;20961;-72
2023/01/16 13:22:51;;;;;;;1.50;0.30;;;6.40;99.90;;;;;;5050225;28;20393;-72
2023/01/16 13:25:19;;;;;;;0.80;0.40;;;6.60;99.90;;;;;;5049005;28;20393;-72
2023/01/16 13:28:00;;;;;;;0.40;0.30;;;6.80;99.90;;;;;;5048838;28;20810;-72
2023/01/16 13:30:25;;;;;;;0.60;0.30;;;7.10;95.90;;;;;;5050460;28;20408;-72
2023/01/16 13:33:18;;;;;;;0.83;0.30;;;7.30;99.90;;;;;;5049581;28;20385;-71
2023/01/16 13:36:12;;;;;;;0.60;0.30;;;7.40;94.20;;;;;;5050348;28;20388;-72
2023/01/16 13:39:14;;;;;;;0.50;0.30;;;7.60;91.10;;;;;;5050277;28;20910;-72
2023/01/16 13:41:46;;;;;;;1.40;0.40;;;7.60;91.90;;;;;;5125531;22;20428;-72
2023/01/16 13:47:24;;;;;;;0.90;0.40;;;7.70;91.60;;;;;;5110669;28;20383;-73
2023/01/16 13:49:53;;;;;;;0.90;0.40;;;7.80;84.70;;;;;;5092366;28;20436;-73
2023/01/16 13:52:27;;;;;;;0.80;0.30;;;7.90;86.30;;;;;;5110646;28;20375;-73
2023/01/16 13:54:56;;;;;;;0.80;0.50;;;8.10;81.00;;;;;;5101656;28;20399;-73
2023/01/16 13:57:24;;;;;;;1.90;0.57;;;8.10;80.20;;;;;;5094947;28;20813;-72
2023/01/16 13:59:56;;;;;;;0.50;0.30;;;8.20;78.20;;;;;;5110675;28;20384;-73
2023/01/16 14:02:27;;;;;;;0.70;0.30;;;8.30;75.30;;;;;;5110853;28;20871;-70
2023/01/16 14:05:04;;;;;;;0.85;0.40;;;8.30;73.60;;;;;;5092083;28;20397;-70
2023/01/16 14:10:41;;;;;;;0.60;0.30;;;8.20;72.40;;;;;;5070140;28;20414;-73
2023/01/16 14:13:19;;;;;;;0.80;0.40;;;8.20;71.60;;;;;;5086642;28;20392;-72
2023/01/16 14:18:42;;;;;;;0.80;0.40;;;8.00;92.30;;;;;;5113366;28;20432;-73
2023/01/16 14:21:14;;;;;;;0.70;0.40;;;7.50;99.90;;;;;;5113998;28;20376;-73
2023/01/16 14:24:01;;;;;;;1.60;0.40;;;7.20;99.90;;;;;;5112040;28;20383;-72
2023/01/16 14:26:53;;;;;;;1.20;0.40;;;7.20;99.90;;;;;;5103207;28;20470;-73
2023/01/16 14:29:35;;;;;;;1.40;0.50;;;7.10;99.90;;;;;;5090494;28;20471;-73
2023/01/16 14:32:01;;;;;;;1.00;0.40;;;7.00;99.90;;;;;;5090414;28;20394;-73